createdAt,value
2023-05-24T00:00:29.988Z,100332.75
2023-05-24T00:03:17.013Z,100335.91
2023-05-24T00:06:03.973Z,100331.03
2023-05-24T00:08:50.992Z,100332.88
2023-05-24T00:11:31.394Z,100324.44
2023-05-24T00:14:17.968Z,100329.16
2023-05-24T00:16:58.755Z,100332.31
2023-05-24T00:19:45.956Z,100331.41
2023-05-24T00:22:32.967Z,100339.22
2023-05-24T00:25:19.917Z,100332.06
2023-05-24T00:28:07.005Z,100334.38
2023-05-24T00:30:47.923Z,100335.09
2023-05-24T00:33:34.910Z,100334.47
2023-05-24T00:36:21.947Z,100338.28
2023-05-24T00:39:02.310Z,100340.81
2023-05-24T00:41:48.916Z,100338.19
2023-05-24T00:44:29.945Z,100342.66
2023-05-24T00:47:16.977Z,100332.50
2023-05-24T00:49:57.677Z,100338.28
2023-05-24T00:52:44.976Z,100338.06
2023-05-24T00:55:31.952Z,100334.72
2023-05-24T00:58:12.070Z,100326.41
2023-05-24T01:01:00.855Z,100323.91
2023-05-24T01:03:42.335Z,100327.47
2023-05-24T01:06:29.964Z,100331.41
2023-05-24T01:09:42.875Z,100333.13
2023-05-24T01:13:05.912Z,100324.81
2023-05-24T01:16:05.984Z,100332.34
2023-05-24T01:18:58.903Z,100334.19
2023-05-24T01:22:13.975Z,100325.97
2023-05-24T01:25:24.913Z,100324.47
2023-05-24T01:28:13.884Z,100321.56
2023-05-24T01:31:02.925Z,100339.00
2023-05-24T01:33:49.182Z,100339.47
2023-05-24T01:36:35.953Z,100338.78
2023-05-24T01:39:18.054Z,100332.78
2023-05-24T01:42:29.904Z,100330.72
2023-05-24T01:45:22.956Z,100331.84
2023-05-24T01:48:33.861Z,100332.00
2023-05-24T01:51:15.929Z,100330.38
2023-05-24T01:54:05.861Z,100331.84
2023-05-24T01:56:53.855Z,100333.69
2023-05-24T01:59:41.922Z,100338.00
2023-05-24T02:02:22.144Z,100331.41
2023-05-24T02:05:08.801Z,100328.03
2023-05-24T02:07:55.867Z,100331.41
2023-05-24T02:10:39.406Z,100331.41
2023-05-24T02:13:26.828Z,100342.38
2023-05-24T02:16:07.289Z,100338.31
2023-05-24T02:18:54.835Z,100342.38
2023-05-24T02:21:35.207Z,100338.78
2023-05-24T02:24:21.780Z,100333.59
2023-05-24T02:27:02.691Z,100341.56
2023-05-24T02:29:49.798Z,100343.75
2023-05-24T02:32:30.181Z,100343.66
2023-05-24T02:35:16.771Z,100341.78
2023-05-24T02:38:12.787Z,100348.25
2023-05-24T02:40:59.783Z,100351.25
2023-05-24T02:43:39.956Z,100353.69
2023-05-24T02:46:26.889Z,100357.50
2023-05-24T02:49:07.005Z,100356.69
2023-05-24T02:51:53.771Z,100363.91
2023-05-24T02:54:40.777Z,100359.16
2023-05-24T02:57:28.823Z,100360.78
2023-05-24T03:00:15.721Z,100367.25
2023-05-24T03:03:04.862Z,100367.25
2023-05-24T03:05:51.752Z,100361.47
2023-05-24T03:08:38.717Z,100361.69
2023-05-24T03:11:22.381Z,100367.03
2023-05-24T03:14:10.746Z,100363.31
2023-05-24T03:16:57.739Z,100358.22
2023-05-24T03:19:38.205Z,100363.78
2023-05-24T03:22:25.716Z,100368.28
2023-05-24T03:25:08.800Z,100373.38
2023-05-24T03:27:55.765Z,100366.06
2023-05-24T03:30:36.121Z,100364.53
2023-05-24T03:33:22.722Z,100366.63
2023-05-24T03:36:04.346Z,100364.44
2023-05-24T03:38:50.687Z,100358.66
2023-05-24T03:41:31.370Z,100361.28
2023-05-24T03:44:18.740Z,100359.78
2023-05-24T03:47:05.844Z,100364.50
2023-05-24T03:49:45.634Z,100364.41
2023-05-24T03:52:26.477Z,100371.09
2023-05-24T03:55:13.659Z,100379.53
2023-05-24T03:57:56.083Z,100382.66
2023-05-24T04:00:42.917Z,100379.13
2023-05-24T04:03:30.044Z,100378.13
2023-05-24T04:06:09.610Z,100375.91
2023-05-24T04:08:56.702Z,100380.06
2023-05-24T04:11:43.636Z,100381.72
2023-05-24T04:14:24.017Z,100382.34
2023-05-24T04:17:12.739Z,100389.28
2023-05-24T04:20:00.661Z,100384.81
2023-05-24T04:22:40.845Z,100393.81
2023-05-24T04:25:27.620Z,100395.59
2023-05-24T04:28:08.572Z,100393.81
2023-05-24T04:30:55.704Z,100399.69
2023-05-24T04:33:35.737Z,100402.16
2023-05-24T04:36:24.678Z,100399.81
2023-05-24T04:39:11.708Z,100396.16
2023-05-24T04:41:59.619Z,100390.69
2023-05-24T04:44:46.585Z,100390.63
2023-05-24T04:47:27.061Z,100402.78
2023-05-24T04:50:13.638Z,100404.03
2023-05-24T04:53:00.610Z,100388.41
2023-05-24T04:55:40.650Z,100388.53
2023-05-24T04:58:27.607Z,100388.16
2023-05-24T05:01:15.670Z,100390.78
2023-05-24T05:04:02.609Z,100392.84
2023-05-24T05:06:44.727Z,100382.91
2023-05-24T05:09:31.561Z,100399.38
2023-05-24T05:12:18.571Z,100396.94
2023-05-24T05:14:59.004Z,100396.25
2023-05-24T05:17:45.661Z,100390.25
2023-05-24T05:20:26.160Z,100395.06
2023-05-24T05:23:12.574Z,100400.56
2023-05-24T05:25:59.564Z,100403.94
2023-05-24T05:28:39.736Z,100410.22
2023-05-24T05:31:26.551Z,100397.06
2023-05-24T05:34:09.841Z,100398.88
2023-05-24T05:36:56.518Z,100403.53
2023-05-24T05:39:36.694Z,100413.78
2023-05-24T05:42:23.540Z,100412.97
2023-05-24T05:45:03.648Z,100416.34
2023-05-24T05:47:50.545Z,100414.44
2023-05-24T05:50:30.713Z,100420.28
2023-05-24T05:53:17.518Z,100413.38
2023-05-24T05:56:04.524Z,100411.69
2023-05-24T05:58:44.934Z,100408.38
2023-05-24T06:01:31.501Z,100418.06
2023-05-24T06:04:25.669Z,100413.75
2023-05-24T06:07:12.466Z,100415.81
2023-05-24T06:09:59.552Z,100418.69
2023-05-24T06:12:40.687Z,100439.69
2023-05-24T06:15:29.505Z,100444.78
2023-05-24T06:18:09.890Z,100442.72
2023-05-24T06:20:56.523Z,100443.31
2023-05-24T06:23:38.010Z,100443.38
2023-05-24T06:26:24.542Z,100437.81
2023-05-24T06:29:04.923Z,100430.50
2023-05-24T06:31:51.697Z,100434.72
2023-05-24T06:34:31.951Z,100440.28
2023-05-24T06:37:21.494Z,100436.94
2023-05-24T06:40:08.512Z,100443.09
2023-05-24T06:42:55.490Z,100441.09
2023-05-24T06:45:49.430Z,100436.59
2023-05-24T06:48:36.620Z,100432.50
2023-05-24T06:51:16.601Z,100438.63
2023-05-24T06:54:03.459Z,100441.25
2023-05-24T06:56:43.659Z,100445.50
2023-05-24T06:59:30.446Z,100450.84
2023-05-24T07:02:10.730Z,100451.25
2023-05-24T07:04:57.521Z,100454.28
2023-05-24T07:07:44.499Z,100450.25
2023-05-24T07:10:24.796Z,100444.72
2023-05-24T07:13:11.430Z,100451.56
2023-05-24T07:15:51.824Z,100450.09
2023-05-24T07:18:38.474Z,100453.97
2023-05-24T07:21:25.435Z,100451.00
2023-05-24T07:24:14.729Z,100462.44
2023-05-24T07:26:57.716Z,100456.38
2023-05-24T07:29:46.293Z,100460.25
